Time;durP1;ratioP1;P1;durP2;ratioP2;P2;SDS_P1;SDS_P2;PMS_P1;PMS_P2;Temp;Humidity;BMP_temperature;BMP_pressure;BME280_temperature;BME280_humidity;BME280_pressure;Samples;Min_cycle;Max_cycle;Signal;HPM_P1;HPM_P2
2022/09/14 00:01:13;;;;;;;1.25;0.20;;;;;;;19.37;100.00;100429.63;4996676;28;20038;-90
2022/09/14 00:03:51;;;;;;;1.40;0.20;;;;;;;19.37;100.00;100428.81;5006157;28;20045;-87
2022/09/14 00:06:17;;;;;;;4.00;0.30;;;;;;;19.39;100.00;100426.75;5002397;28;20052;-86
2022/09/14 00:08:43;;;;;;;0.68;0.30;;;;;;;19.40;100.00;100428.38;5000643;28;20037;-88
2022/09/14 00:11:13;;;;;;;1.20;0.30;;;;;;;19.40;100.00;100429.19;5001701;28;20079;-90
2022/09/14 00:13:42;;;;;;;1.08;0.30;;;;;;;19.41;100.00;100425.53;5010660;28;20612;-89
2022/09/14 00:16:14;;;;;;;3.90;0.20;;;;;;;19.43;100.00;100430.59;5015230;28;20096;-91
2022/09/14 00:18:41;;;;;;;1.92;0.20;;;;;;;19.37;100.00;100428.81;5007529;28;20029;-88
2022/09/14 00:21:08;;;;;;;3.47;0.38;;;;;;;19.33;100.00;100431.03;5016280;28;20025;-87
2022/09/14 00:23:36;;;;;;;1.80;0.22;;;;;;;19.33;100.00;100435.50;5001318;28;20552;-90
2022/09/14 00:26:09;;;;;;;1.75;0.20;;;;;;;19.33;100.00;100433.69;5001351;28;20043;-88
2022/09/14 00:28:40;;;;;;;2.08;0.20;;;;;;;19.35;100.00;100442.22;4994488;28;20478;-87
2022/09/14 00:31:06;;;;;;;0.40;0.20;;;;;;;19.38;100.00;100444.44;5005027;28;20153;-88
2022/09/14 00:33:33;;;;;;;1.25;0.20;;;;;;;19.37;100.00;100432.25;4997258;28;20033;-86
2022/09/14 00:36:15;;;;;;;2.90;0.20;;;;;;;19.34;100.00;100421.28;5021192;28;20031;-92
2022/09/14 00:38:48;;;;;;;3.00;0.50;;;;;;;19.30;100.00;100426.16;5006163;28;20103;-86
2022/09/14 00:41:19;;;;;;;3.38;0.28;;;;;;;19.27;100.00;100425.75;5009447;28;20029;-86
2022/09/14 00:43:51;;;;;;;3.22;0.20;;;;;;;19.28;100.00;100433.47;5001002;28;20054;-89
2022/09/14 00:46:16;;;;;;;0.85;0.20;;;;;;;19.32;100.00;100428.59;5003330;28;20188;-89
2022/09/14 00:48:42;;;;;;;1.63;0.30;;;;;;;19.31;100.00;100411.94;5004719;28;20029;-89
2022/09/14 00:51:07;;;;;;;2.08;0.20;;;;;;;19.32;100.00;100416.19;4997972;28;20404;-89
2022/09/14 00:53:33;;;;;;;2.53;0.30;;;;;;;19.33;100.00;100415.19;4994307;28;20045;-90
2022/09/14 00:55:58;;;;;;;2.80;0.20;;;;;;;19.37;100.00;100411.13;4997174;28;20029;-86
2022/09/14 00:58:24;;;;;;;1.85;0.40;;;;;;;19.41;100.00;100412.31;5003936;28;20044;-85
2022/09/14 01:00:49;;;;;;;0.55;0.25;;;;;;;19.44;100.00;100411.09;5016805;28;20505;-90
2022/09/14 01:03:15;;;;;;;2.17;0.20;;;;;;;19.44;100.00;100403.19;4996372;28;20483;-86
2022/09/14 01:06:12;;;;;;;1.80;0.30;;;;;;;19.43;100.00;100402.34;5019934;28;20061;-88
2022/09/14 01:08:52;;;;;;;2.35;0.22;;;;;;;19.43;100.00;100402.34;5000186;28;20051;-87
2022/09/14 01:11:29;;;;;;;3.33;0.20;;;;;;;19.42;100.00;100397.28;5005023;28;20165;-86
2022/09/14 01:14:02;;;;;;;0.85;0.20;;;;;;;19.45;100.00;100402.97;5013314;28;20037;-88
2022/09/14 01:17:02;;;;;;;1.73;0.20;;;;;;;19.48;100.00;100405.22;5001325;28;20036;-88
2022/09/14 01:19:40;;;;;;;1.75;0.25;;;;;;;19.49;100.00;100401.56;4989068;28;20037;-88
2022/09/14 01:22:14;;;;;;;1.50;0.20;;;;;;;19.49;100.00;100395.44;5005913;28;20030;-91
2022/09/14 01:24:52;;;;;;;0.55;0.10;;;;;;;19.50;100.00;100397.06;5007169;28;20033;-86
2022/09/14 01:27:42;;;;;;;0.75;0.17;;;;;;;19.48;100.00;100392.00;5013981;28;20029;-88
2022/09/14 01:30:17;;;;;;;2.60;0.82;;;;;;;19.49;100.00;100398.91;5002486;28;20025;-86
2022/09/14 01:33:01;;;;;;;2.50;0.20;;;;;;;19.52;100.00;100395.88;5008950;28;20045;-90
2022/09/14 01:35:43;;;;;;;3.10;0.20;;;;;;;19.55;100.00;100392.03;4995963;28;20034;-87
2022/09/14 01:38:34;;;;;;;1.17;0.20;;;;;;;19.55;100.00;100398.13;5002550;28;20048;-88
2022/09/14 01:41:05;;;;;;;1.45;0.28;;;;;;;19.57;100.00;100390.00;5000474;28;20232;-89
2022/09/14 01:43:37;;;;;;;1.65;0.30;;;;;;;19.58;100.00;100385.53;5019654;28;20500;-91
2022/09/14 01:46:09;;;;;;;1.27;0.45;;;;;;;19.55;100.00;100384.09;4997597;28;20514;-87
2022/09/14 01:48:44;;;;;;;3.22;0.20;;;;;;;19.54;100.00;100385.13;4992823;28;20042;-91
2022/09/14 01:51:16;;;;;;;3.97;0.28;;;;;;;19.57;100.00;100389.19;5008537;28;20033;-86
2022/09/14 01:54:09;;;;;;;2.08;0.20;;;;;;;19.58;100.00;100381.06;5019939;28;20033;-87
2022/09/14 01:56:40;;;;;;;1.13;0.20;;;;;;;19.60;100.00;100392.22;4996277;28;20030;-89
2022/09/14 01:59:18;;;;;;;0.80;0.20;;;;;;;19.61;100.00;100390.41;5008207;28;20122;-88
2022/09/14 02:01:50;;;;;;;1.15;0.40;;;;;;;19.61;100.00;100379.81;5014131;28;20104;-91
2022/09/14 02:04:21;;;;;;;2.60;0.20;;;;;;;19.63;100.00;100373.31;4999166;28;20087;-90
2022/09/14 02:06:48;;;;;;;1.77;0.20;;;;;;;19.63;100.00;100378.59;5014665;28;20041;-89
2022/09/14 02:09:21;;;;;;;0.30;0.10;;;;;;;19.64;100.00;100380.22;4995365;28;20071;-93
2022/09/14 02:11:46;;;;;;;1.60;0.17;;;;;;;19.61;100.00;100370.06;4997731;28;20041;-87
2022/09/14 02:14:12;;;;;;;2.42;0.28;;;;;;;19.57;100.00;100375.97;4990391;28;20428;-86
2022/09/14 02:16:42;;;;;;;0.50;0.20;;;;;;;19.57;100.00;100381.25;5013164;28;20037;-88
2022/09/14 02:19:08;;;;;;;0.95;0.20;;;;;;;19.53;100.00;100373.72;5016502;28;20079;-87
2022/09/14 02:21:37;;;;;;;3.90;0.22;;;;;;;19.54;100.00;100367.44;4991874;28;20445;-90
2022/09/14 02:24:06;;;;;;;1.50;0.20;;;;;;;19.53;100.00;100365.81;5015987;28;20041;-87
2022/09/14 02:26:32;;;;;;;0.40;0.20;;;;;;;19.57;100.00;100366.22;4997355;28;20049;-88
2022/09/14 02:28:58;;;;;;;0.82;0.13;;;;;;;19.60;100.00;100362.34;5001059;28;20043;-84
2022/09/14 02:31:49;;;;;;;2.35;0.20;;;;;;;19.61;100.00;100366.63;4995506;28;20041;-87
2022/09/14 02:35:03;;;;;;;0.77;0.20;;;;;;;19.61;100.00;100363.97;5011081;28;20128;-87
2022/09/14 02:37:54;;;;;;;1.92;0.20;;;;;;;19.54;100.00;100358.69;5010069;28;20026;-88
2022/09/14 02:42:58;;;;;;;1.20;0.30;;;;;;;19.50;100.00;100342.41;5193978;22;20095;-89
2022/09/14 02:45:29;;;;;;;1.40;0.20;;;;;;;19.52;100.00;100339.59;4989301;28;20030;-86
2022/09/14 02:48:32;;;;;;;0.43;0.20;;;;;;;19.52;100.00;100329.03;5008446;28;20040;-87
2022/09/14 02:51:42;;;;;;;2.50;0.30;;;;;;;19.55;100.00;100323.31;4989581;28;20034;-87
2022/09/14 02:54:24;;;;;;;1.38;0.30;;;;;;;19.57;100.00;100320.47;4989402;28;20072;-85
2022/09/14 02:56:49;;;;;;;2.95;0.30;;;;;;;19.60;100.00;100309.50;4988934;28;20033;-85
2022/09/14 02:59:15;;;;;;;0.90;0.30;;;;;;;19.57;100.00;100308.06;5008375;28;20045;-87
2022/09/14 03:01:41;;;;;;;2.20;0.30;;;;;;;19.58;100.00;100307.06;4987544;28;20021;-87
2022/09/14 03:04:06;;;;;;;1.10;0.20;;;;;;;19.58;100.00;100307.06;4988956;28;20401;-85
2022/09/14 03:06:32;;;;;;;1.40;0.30;;;;;;;19.57;100.00;100307.25;4994616;28;20485;-85
2022/09/14 03:08:57;;;;;;;2.78;0.30;;;;;;;19.54;100.00;100305.84;4993004;28;20030;-84
2022/09/14 03:11:23;;;;;;;0.45;0.20;;;;;;;19.55;100.00;100308.28;5011082;28;20036;-85
2022/09/14 03:13:48;;;;;;;1.02;0.30;;;;;;;19.58;100.00;100307.06;5009443;28;20033;-87
2022/09/14 03:16:16;;;;;;;0.68;0.50;;;;;;;19.58;100.00;100307.06;4992844;28;20401;-89
2022/09/14 03:18:42;;;;;;;2.40;0.28;;;;;;;19.58;100.00;100308.88;5011666;28;20113;-90
2022/09/14 03:21:13;;;;;;;2.42;0.30;;;;;;;19.57;100.00;100307.25;4992875;28;20053;-90
2022/09/14 03:23:42;;;;;;;0.70;0.30;;;;;;;19.58;100.00;100307.06;5007261;28;20041;-88
2022/09/14 03:26:09;;;;;;;0.75;0.30;;;;;;;19.57;100.00;100304.63;5011571;28;20479;-89
2022/09/14 03:28:36;;;;;;;1.33;0.40;;;;;;;19.59;100.00;100299.94;4990362;28;20028;-88
2022/09/14 03:31:03;;;;;;;3.08;0.80;;;;;;;19.62;100.00;100307.47;5011924;28;20026;-89
2022/09/14 03:33:39;;;;;;;1.15;0.30;;;;;;;19.60;100.00;100306.84;4992889;28;20519;-86
2022/09/14 03:36:18;;;;;;;1.23;0.20;;;;;;;19.58;100.00;100303.59;5009378;28;20065;-89
2022/09/14 03:38:45;;;;;;;2.05;0.32;;;;;;;19.61;100.00;100305.84;4992242;28;20022;-89
2022/09/14 03:41:12;;;;;;;2.30;0.30;;;;;;;19.63;100.00;100295.88;5011375;28;20563;-90
2022/09/14 03:43:38;;;;;;;0.90;0.20;;;;;;;19.62;100.00;100294.25;4992584;28;20088;-89
2022/09/14 03:46:08;;;;;;;0.68;0.30;;;;;;;19.61;100.00;100284.69;4992582;28;20454;-90
2022/09/14 03:48:34;;;;;;;2.13;0.30;;;;;;;19.61;100.00;100289.97;5011393;28;20152;-88
2022/09/14 03:51:05;;;;;;;5.45;0.32;;;;;;;19.60;100.00;100283.88;4992152;28;20137;-87
2022/09/14 03:53:31;;;;;;;0.35;0.20;;;;;;;19.62;100.00;100281.03;5009999;28;20033;-87
2022/09/14 03:55:57;;;;;;;0.45;0.30;;;;;;;19.64;100.00;100279.00;5009375;28;20197;-88
2022/09/14 03:58:22;;;;;;;0.60;0.38;;;;;;;19.65;100.00;100276.16;4993601;28;20437;-87
2022/09/14 04:00:48;;;;;;;1.75;0.20;;;;;;;19.65;100.00;100276.16;5009305;28;20364;-87
2022/09/14 04:03:14;;;;;;;1.42;0.28;;;;;;;19.65;100.00;100270.03;5010334;28;20400;-88
2022/09/14 04:05:40;;;;;;;4.15;0.30;;;;;;;19.66;100.00;100269.03;4992968;28;20034;-89
2022/09/14 04:08:05;;;;;;;0.98;0.20;;;;;;;19.64;100.00;100268.41;4994866;28;20034;-88
2022/09/14 04:10:31;;;;;;;2.55;0.30;;;;;;;19.65;100.00;100264.75;4992820;28;20041;-87
2022/09/14 04:12:57;;;;;;;3.67;0.40;;;;;;;19.66;100.00;100263.75;5010504;28;20288;-88
2022/09/14 04:15:23;;;;;;;1.58;0.38;;;;;;;19.66;100.00;100266.38;4992210;28;21208;-88
2022/09/14 04:17:54;;;;;;;0.77;0.30;;;;;;;19.63;100.00;100261.50;4991608;28;20038;-87
2022/09/14 04:20:22;;;;;;;1.52;0.45;;;;;;;19.63;100.00;100264.16;4992664;28;20091;-86
2022/09/14 04:22:48;;;;;;;0.80;0.30;;;;;;;19.64;100.00;100263.94;4992180;28;20120;-89
2022/09/14 04:25:13;;;;;;;2.55;0.40;;;;;;;19.65;100.00;100262.94;4992004;28;20064;-86
2022/09/14 04:27:39;;;;;;;2.55;0.30;;;;;;;19.67;100.00;100270.66;5010950;28;20026;-86
2022/09/14 04:30:05;;;;;;;1.45;0.30;;;;;;;19.68;100.00;100264.34;4993049;28;20029;-84
2022/09/14 04:32:31;;;;;;;1.58;0.32;;;;;;;19.69;100.00;100258.03;4993913;28;20034;-87
2022/09/14 04:34:56;;;;;;;1.15;0.30;;;;;;;19.68;100.00;100254.59;4995784;28;20025;-84
2022/09/14 04:37:22;;;;;;;0.47;0.25;;;;;;;19.67;100.00;100254.78;4993633;28;20523;-84
2022/09/14 04:39:47;;;;;;;1.67;0.20;;;;;;;19.65;100.00;100249.72;4973563;28;20121;-83
2022/09/14 04:42:13;;;;;;;4.10;0.40;;;;;;;19.64;100.00;100242.81;4989154;28;20400;-85
2022/09/14 04:44:41;;;;;;;1.10;0.30;;;;;;;19.62;100.00;100236.09;4990131;28;20041;-84
2022/09/14 04:47:06;;;;;;;3.95;0.35;;;;;;;19.63;100.00;100245.66;4989461;28;20072;-83
2022/09/14 04:49:32;;;;;;;5.22;0.30;;;;;;;19.61;100.00;100247.69;4990997;28;20054;-85
2022/09/14 04:51:57;;;;;;;0.98;0.30;;;;;;;19.60;100.00;100240.78;5007742;28;20492;-86
2022/09/14 04:54:23;;;;;;;3.13;0.50;;;;;;;19.60;100.00;100238.16;4990838;28;20397;-84
2022/09/14 04:56:48;;;;;;;2.35;0.32;;;;;;;19.59;100.00;100250.53;5005724;28;20038;-85
2022/09/14 04:59:14;;;;;;;3.13;0.30;;;;;;;19.58;100.00;100248.91;4989521;28;20026;-86
2022/09/14 05:01:42;;;;;;;0.85;0.20;;;;;;;19.59;100.00;100250.53;5003741;28;20045;-84
2022/09/14 05:04:09;;;;;;;3.72;0.20;;;;;;;19.61;100.00;100252.97;5009394;28;20038;-85
2022/09/14 05:06:37;;;;;;;1.55;0.30;;;;;;;19.61;100.00;100248.50;4990796;28;20036;-85
2022/09/14 05:09:05;;;;;;;0.60;0.40;;;;;;;19.63;100.00;100256.22;5007517;28;20040;-84
2022/09/14 05:11:33;;;;;;;1.63;0.68;;;;;;;19.62;100.00;100259.88;4990905;28;20036;-82
2022/09/14 05:14:00;;;;;;;3.90;0.40;;;;;;;19.61;100.00;100267.00;5007446;28;20037;-83
2022/09/14 05:16:29;;;;;;;0.57;0.20;;;;;;;19.59;100.00;100274.31;4989991;28;20442;-85
2022/09/14 05:19:03;;;;;;;1.65;0.20;;;;;;;19.58;100.00;100270.06;5006378;28;20093;-84
2022/09/14 05:21:30;;;;;;;2.05;0.20;;;;;;;19.57;100.00;100264.97;4991209;28;20026;-85
2022/09/14 05:24:03;;;;;;;3.22;0.20;;;;;;;19.61;100.00;100268.84;5007495;28;20485;-85
2022/09/14 05:26:30;;;;;;;0.82;0.22;;;;;;;19.65;100.00;100260.28;4991612;28;20173;-85
2022/09/14 05:28:58;;;;;;;4.28;0.20;;;;;;;19.69;100.00;100264.13;4984258;28;20524;-85
2022/09/14 05:31:25;;;;;;;1.05;0.47;;;;;;;19.71;100.00;100261.28;4975107;28;20037;-85
2022/09/14 05:33:51;;;;;;;0.75;0.30;;;;;;;19.68;100.00;100257.22;5007429;28;20037;-84
2022/09/14 05:36:16;;;;;;;0.70;0.30;;;;;;;19.67;100.00;100250.31;5006305;28;20030;-85
2022/09/14 05:38:42;;;;;;;6.90;0.30;;;;;;;19.69;100.00;100261.50;4986424;28;20033;-83
2022/09/14 05:41:11;;;;;;;2.90;0.40;;;;;;;19.72;100.00;100263.72;5003389;28;20497;-85
2022/09/14 05:43:37;;;;;;;4.13;0.50;;;;;;;19.72;100.00;100262.91;5002024;28;20197;-82
2022/09/14 05:46:04;;;;;;;1.20;0.30;;;;;;;19.74;100.00;100259.03;5006567;28;20493;-82
2022/09/14 05:48:31;;;;;;;2.85;0.40;;;;;;;19.75;100.00;100255.38;5001431;28;20501;-82
2022/09/14 05:50:59;;;;;;;3.70;0.40;;;;;;;19.76;100.00;100262.28;5004143;28;20029;-81
2022/09/14 05:53:25;;;;;;;0.75;0.30;;;;;;;19.77;100.00;100261.25;4986359;28;20030;-83
2022/09/14 05:55:59;;;;;;;3.22;0.20;;;;;;;19.77;100.00;100260.44;4988146;28;20041;-83
2022/09/14 05:58:25;;;;;;;3.17;0.40;;;;;;;19.80;100.00;100249.47;5002792;28;20089;-82
2022/09/14 06:01:11;;;;;;;2.55;0.40;;;;;;;19.79;100.00;100246.00;5005398;28;20117;-83
2022/09/14 06:03:37;;;;;;;1.70;0.32;;;;;;;19.80;100.00;100252.91;4985703;28;20077;-83
2022/09/14 06:06:04;;;;;;;3.90;0.85;;;;;;;19.83;100.00;100254.34;4988845;28;20567;-82
2022/09/14 06:08:30;;;;;;;1.85;0.30;;;;;;;19.84;100.00;100250.66;5006148;28;20040;-82
2022/09/14 06:10:55;;;;;;;1.50;0.35;;;;;;;19.84;100.00;100250.66;4990569;28;20038;-83
2022/09/14 06:13:24;;;;;;;2.97;0.40;;;;;;;19.85;100.00;100249.63;5007609;28;20021;-83
2022/09/14 06:15:49;;;;;;;1.50;0.40;;;;;;;19.88;100.00;100254.50;5006572;28;20049;-82
2022/09/14 06:18:14;;;;;;;3.70;0.38;;;;;;;19.89;100.00;100256.09;4990593;28;20041;-83
2022/09/14 06:20:49;;;;;;;2.83;0.50;;;;;;;19.92;100.00;100252.25;4990442;28;20029;-83
2022/09/14 06:23:15;;;;;;;2.42;0.30;;;;;;;19.95;100.00;100254.47;5008007;28;20124;-83
2022/09/14 06:25:40;;;;;;;2.30;0.50;;;;;;;19.99;100.00;100258.31;5005836;28;20100;-82
2022/09/14 06:28:06;;;;;;;2.67;0.40;;;;;;;20.03;100.00;100257.69;5007339;28;20036;-83
2022/09/14 06:30:31;;;;;;;0.63;0.30;;;;;;;20.06;100.00;100259.09;5008113;28;20108;-82
2022/09/14 06:32:56;;;;;;;2.25;0.25;;;;;;;20.10;100.00;100265.59;5007979;28;20512;-82
2022/09/14 06:35:22;;;;;;;2.08;0.20;;;;;;;20.09;100.00;100266.59;5005755;28;20030;-83
2022/09/14 06:37:47;;;;;;;4.10;0.20;;;;;;;20.10;100.00;100268.22;4990217;28;20029;-83
2022/09/14 06:40:12;;;;;;;0.73;0.20;;;;;;;20.10;100.00;100265.59;5007840;28;20041;-83
2022/09/14 06:42:38;;;;;;;1.52;0.20;;;;;;;20.08;100.00;100265.78;5006598;28;20088;-82
2022/09/14 06:45:04;;;;;;;2.30;0.20;;;;;;;20.07;100.00;100264.16;5007894;28;20057;-84
2022/09/14 06:47:32;;;;;;;1.10;0.20;;;;;;;20.07;100.00;100274.75;4990156;28;20062;-84
2022/09/14 06:50:00;;;;;;;1.65;0.20;;;;;;;20.05;100.00;100273.34;5007582;28;20551;-83
2022/09/14 06:52:25;;;;;;;1.30;0.10;;;;;;;20.04;100.00;100269.06;5008034;28;20065;-84
2022/09/14 06:54:51;;;;;;;0.90;0.17;;;;;;;20.04;100.00;100269.88;5003174;28;20053;-83
2022/09/14 06:57:16;;;;;;;2.78;0.30;;;;;;;20.06;100.00;100277.59;4985473;28;20077;-83
2022/09/14 06:59:44;;;;;;;0.35;0.10;;;;;;;20.07;100.00;100274.75;4999237;28;20042;-83
2022/09/14 07:02:12;;;;;;;0.30;0.10;;;;;;;20.09;100.00;100272.72;4999800;28;20032;-84
2022/09/14 07:04:38;;;;;;;0.80;0.20;;;;;;;20.09;100.00;100261.31;5002585;28;20563;-82
2022/09/14 07:07:04;;;;;;;1.38;0.20;;;;;;;20.09;100.00;100266.59;4984468;28;20034;-83
2022/09/14 07:09:30;;;;;;;3.72;0.28;;;;;;;20.09;100.00;100271.91;5005152;28;20026;-84
2022/09/14 07:11:56;;;;;;;2.33;0.20;;;;;;;20.09;100.00;100261.31;5002932;28;20022;-83
2022/09/14 07:14:21;;;;;;;0.22;0.10;;;;;;;20.13;100.00;100267.81;4981769;28;20030;-82
2022/09/14 07:16:47;;;;;;;0.68;0.10;;;;;;;20.17;100.00;100269.00;5002180;28;20591;-82
2022/09/14 07:19:13;;;;;;;2.25;0.10;;;;;;;20.20;100.00;100274.69;4985388;28;20029;-83
2022/09/14 07:21:39;;;;;;;1.15;0.20;;;;;;;20.21;100.00;100265.72;4980511;28;20037;-83
2022/09/14 07:24:05;;;;;;;2.92;0.10;;;;;;;20.23;100.00;100256.78;4999429;28;20499;-82
2022/09/14 07:26:34;;;;;;;0.55;0.20;;;;;;;20.25;100.00;100265.31;4976618;28;20026;-84
2022/09/14 07:29:05;;;;;;;2.20;0.30;;;;;;;20.26;100.00;100269.56;5001658;28;20057;-81
2022/09/14 07:31:34;;;;;;;4.00;0.28;;;;;;;20.28;100.00;100271.00;5004207;28;20544;-84
2022/09/14 07:34:02;;;;;;;1.10;0.30;;;;;;;20.31;100.00;100269.75;4997269;28;20049;-82
2022/09/14 07:36:28;;;;;;;1.10;0.30;;;;;;;20.37;100.00;100274.16;5007614;28;20041;-83
2022/09/14 07:38:54;;;;;;;2.40;0.30;;;;;;;20.42;100.00;100274.38;5004487;28;20030;-82
2022/09/14 07:41:21;;;;;;;1.05;0.20;;;;;;;20.43;100.00;100278.63;4996290;28;20030;-82
2022/09/14 07:43:49;;;;;;;0.22;0.20;;;;;;;20.44;100.00;100280.25;5005725;28;20037;-82
2022/09/14 07:46:14;;;;;;;1.27;0.20;;;;;;;20.44;100.00;100280.25;5003323;28;20030;-82
2022/09/14 07:48:39;;;;;;;0.50;0.20;;;;;;;20.43;100.00;100283.94;4981345;28;20052;-83
2022/09/14 07:51:09;;;;;;;1.23;0.28;;;;;;;20.42;100.00;100287.59;4997455;28;20061;-82
2022/09/14 07:53:37;;;;;;;1.15;0.20;;;;;;;20.41;100.00;100281.50;4989823;28;20033;-84
2022/09/14 07:56:04;;;;;;;3.50;0.20;;;;;;;20.41;100.00;100291.28;4991186;28;20032;-83
2022/09/14 07:58:30;;;;;;;0.55;0.20;;;;;;;20.40;100.00;100287.81;5009519;28;20029;-83
2022/09/14 08:01:07;;;;;;;0.95;0.10;;;;;;;20.44;100.00;100294.31;5007796;28;20167;-83
2022/09/14 08:03:35;;;;;;;1.67;0.20;;;;;;;20.48;100.00;100307.94;5007784;28;20073;-84
2022/09/14 08:06:10;;;;;;;0.85;0.10;;;;;;;20.48;100.00;100302.63;5002922;28;20025;-83
2022/09/14 08:08:38;;;;;;;0.75;0.20;;;;;;;20.46;100.00;100300.19;5003511;28;20573;-84
2022/09/14 08:11:12;;;;;;;0.45;0.10;;;;;;;20.42;100.00;100298.19;5006550;28;20026;-84
2022/09/14 08:13:39;;;;;;;0.68;0.10;;;;;;;20.40;100.00;100306.34;5003652;28;20033;-82
2022/09/14 08:16:05;;;;;;;1.17;0.17;;;;;;;20.40;100.00;100310.81;5002430;28;20023;-82
2022/09/14 08:18:32;;;;;;;0.85;0.20;;;;;;;20.39;100.00;100309.19;5005154;28;20045;-84
2022/09/14 08:21:18;;;;;;;2.72;0.20;;;;;;;20.36;100.00;100305.09;5005559;28;20042;-84
2022/09/14 08:23:44;;;;;;;0.70;0.10;;;;;;;20.41;100.00;100307.97;5002835;28;20191;-84
2022/09/14 08:26:20;;;;;;;1.55;0.10;;;;;;;20.44;100.00;100318.13;5004897;28;20475;-83
2022/09/14 08:28:46;;;;;;;0.63;0.20;;;;;;;20.47;100.00;100322.19;5010105;28;20030;-83
2022/09/14 08:31:19;;;;;;;1.40;0.32;;;;;;;20.46;100.00;100323.19;5006520;28;20503;-83
2022/09/14 08:33:48;;;;;;;1.15;0.20;;;;;;;20.49;100.00;100328.06;5006192;28;20053;-83
2022/09/14 08:36:16;;;;;;;4.03;0.30;;;;;;;20.52;100.00;100330.28;5003307;28;20030;-83
2022/09/14 08:38:44;;;;;;;1.25;0.30;;;;;;;20.54;100.00;100344.13;5002297;28;20033;-83
2022/09/14 08:41:32;;;;;;;1.92;0.20;;;;;;;20.53;100.00;100345.16;4986685;28;20091;-83
2022/09/14 08:44:10;;;;;;;2.50;0.38;;;;;;;20.56;100.00;100342.09;4984670;28;20468;-83
2022/09/14 08:46:43;;;;;;;0.80;0.40;;;;;;;20.62;100.00;100353.66;4999889;28;20519;-84
2022/09/14 08:49:37;;;;;;;0.70;0.10;;;;;;;20.69;100.00;100363.19;5004003;28;20034;-82
2022/09/14 08:52:03;;;;;;;4.25;0.30;;;;;;;20.78;100.00;100369.84;4997858;28;20042;-84
2022/09/14 08:54:31;;;;;;;0.75;0.20;;;;;;;20.85;100.00;100372.44;5007138;28;20121;-83
2022/09/14 08:57:14;;;;;;;0.73;0.20;;;;;;;20.92;100.00;100377.69;4989662;28;20022;-83
2022/09/14 08:59:49;;;;;;;0.65;0.20;;;;;;;20.97;100.00;100380.50;5006250;28;20049;-84
2022/09/14 09:02:33;;;;;;;;;;;;;;;20.99;100.00;100379.28;4983922;28;20113;-84
2022/09/14 09:05:42;;;;;;;2.47;0.10;;;;;;;21.05;100.00;100388.19;4986193;28;20244;-86
2022/09/14 09:08:57;;;;;;;1.45;0.10;;;;;;;21.09;100.00;100384.09;4987575;28;20049;-85
2022/09/14 09:11:27;;;;;;;0.90;0.20;;;;;;;21.18;100.00;100398.72;4983503;28;20037;-85
2022/09/14 09:13:54;;;;;;;1.60;0.20;;;;;;;21.22;100.00;100397.28;5005583;28;20026;-83
2022/09/14 09:16:24;;;;;;;2.05;0.20;;;;;;;21.22;100.00;100389.34;5008925;28;20099;-82
2022/09/14 09:18:56;;;;;;;6.72;0.30;;;;;;;21.25;100.00;100396.84;4988604;28;20092;-83
2022/09/14 09:21:34;;;;;;;2.80;0.30;;;;;;;21.25;100.00;100394.19;4986492;28;20469;-84
2022/09/14 09:24:20;;;;;;;6.47;0.20;;;;;;;21.22;100.00;100393.81;5005965;28;20389;-83
2022/09/14 09:26:45;;;;;;;4.13;0.20;;;;;;;21.20;100.00;100386.88;4994049;28;20037;-83
2022/09/14 09:29:11;;;;;;;1.85;0.20;;;;;;;21.22;100.00;100393.81;5007295;28;20037;-83
2022/09/14 09:31:40;;;;;;;1.33;0.20;;;;;;;21.24;100.00;100397.88;4985508;28;20030;-83
2022/09/14 09:34:08;;;;;;;3.25;0.70;;;;;;;21.21;100.00;100390.38;5005688;28;20432;-83
2022/09/14 09:36:38;;;;;;;2.67;0.30;;;;;;;21.26;100.00;100387.06;5001448;28;20787;-83
2022/09/14 09:39:11;;;;;;;6.32;0.47;;;;;;;21.25;100.00;100383.59;5003811;28;20796;-84
2022/09/14 09:42:00;;;;;;;1.13;0.20;;;;;;;21.28;100.00;100377.84;4996329;28;20049;-83
2022/09/14 09:44:26;;;;;;;2.08;0.30;;;;;;;21.35;100.00;100375.94;4993938;28;20041;-83
2022/09/14 09:46:58;;;;;;;3.33;0.35;;;;;;;21.33;100.00;100369.25;4993303;28;20052;-83
2022/09/14 09:49:37;;;;;;;0.80;0.30;;;;;;;21.35;100.00;100362.72;5004315;28;20041;-83
2022/09/14 09:52:12;;;;;;;3.97;0.40;;;;;;;21.44;100.00;100352.66;5000707;28;20080;-84
2022/09/14 09:54:41;;;;;;;3.78;0.20;;;;;;;21.53;100.00;100352.16;5006980;28;20099;-82
2022/09/14 09:57:22;;;;;;;1.25;0.40;;;;;;;21.56;100.00;100342.94;5007399;28;20556;-84
2022/09/14 09:59:47;;;;;;;1.70;0.30;;;;;;;21.64;100.00;100341.84;5006764;28;20121;-84
2022/09/14 10:02:25;;;;;;;2.03;0.50;;;;;;;21.71;100.00;100339.94;4990261;28;20148;-83
2022/09/14 10:04:55;;;;;;;1.55;0.30;;;;;;;21.73;100.00;100337.88;5004234;28;20038;-82
2022/09/14 10:07:24;;;;;;;1.55;0.40;;;;;;;21.75;100.00;100328.66;5007078;28;20539;-84
2022/09/14 10:10:12;;;;;;;3.20;0.40;;;;;;;21.79;100.00;100321.06;5001199;28;20496;-84
2022/09/14 10:12:46;;;;;;;3.67;0.30;;;;;;;21.80;100.00;100333.31;4977977;28;20433;-83
2022/09/14 10:15:25;;;;;;;4.20;0.38;;;;;;;21.79;100.00;100339.63;4996838;28;20037;-83
2022/09/14 10:18:08;;;;;;;3.08;0.30;;;;;;;21.76;100.00;100334.78;5002062;28;20407;-84
2022/09/14 10:20:44;;;;;;;4.63;0.50;;;;;;;21.74;100.00;100342.94;4998861;28;20053;-83
2022/09/14 10:23:21;;;;;;;2.00;0.30;;;;;;;21.72;100.00;100331.78;5000011;28;20500;-83
2022/09/14 10:26:12;;;;;;;2.05;0.50;;;;;;;21.70;100.00;100328.53;5003302;28;20030;-83
2022/09/14 10:28:41;;;;;;;4.50;0.73;;;;;;;21.71;100.00;100324.03;4985132;28;20497;-83
2022/09/14 10:31:17;;;;;;;3.08;0.77;;;;;;;21.75;100.00;100327.84;5000995;28;20580;-86
2022/09/14 10:33:50;;;;;;;2.47;0.35;;;;;;;21.75;100.00;100328.66;4998771;28;20095;-84
2022/09/14 10:36:35;;;;;;;3.80;0.50;;;;;;;21.71;100.00;100324.84;5000435;28;20029;-82
2022/09/14 10:39:40;;;;;;;1.65;0.40;;;;;;;21.74;100.00;100323.59;5004906;28;20396;-85
2022/09/14 10:42:12;;;;;;;3.08;0.30;;;;;;;21.85;100.00;100325.50;5004466;28;20060;-82
2022/09/14 10:44:42;;;;;;;2.67;0.30;;;;;;;21.95;100.00;100328.44;5000109;28;20120;-83
2022/09/14 10:47:42;;;;;;;3.33;0.38;;;;;;;22.08;100.00;100319.56;5000183;28;20421;-83
2022/09/14 10:50:43;;;;;;;1.95;0.40;;;;;;;22.32;100.00;100321.25;5003897;28;20044;-83
2022/09/14 10:53:42;;;;;;;5.53;0.45;;;;;;;22.53;100.00;100312.00;4999907;28;20065;-83
2022/09/14 10:56:23;;;;;;;1.38;0.35;;;;;;;22.70;100.00;100318.25;5006869;28;20065;-85
2022/09/14 10:59:26;;;;;;;3.47;0.47;;;;;;;22.81;100.00;100317.50;4999121;28;20125;-85
2022/09/14 11:01:52;;;;;;;2.35;0.30;;;;;;;22.93;100.00;100309.56;4981291;28;20405;-84
2022/09/14 11:04:22;;;;;;;2.42;0.40;;;;;;;23.02;99.11;100294.91;4983305;28;20037;-84
2022/09/14 11:07:06;;;;;;;2.05;0.20;;;;;;;23.09;98.96;100292.16;4986801;28;20034;-83
2022/09/14 11:09:54;;;;;;;3.80;0.30;;;;;;;23.13;98.64;100301.28;5000043;28;20494;-83
2022/09/14 11:12:32;;;;;;;1.80;0.50;;;;;;;23.08;99.39;100303.81;4984187;28;20037;-85
2022/09/14 11:15:16;;;;;;;1.40;0.40;;;;;;;23.10;98.53;100296.41;4998632;28;20133;-83
2022/09/14 11:18:03;;;;;;;3.20;0.40;;;;;;;23.12;98.15;100300.47;4998218;28;20103;-83
2022/09/14 11:20:36;;;;;;;2.45;0.40;;;;;;;23.13;98.60;100288.81;4981326;28;20159;-83
2022/09/14 11:23:36;;;;;;;3.58;0.40;;;;;;;23.14;98.26;100294.91;5000282;28;20441;-84
2022/09/14 11:26:09;;;;;;;4.18;0.40;;;;;;;23.11;98.61;100293.53;5007545;28;20048;-84
2022/09/14 11:29:12;;;;;;;1.60;0.40;;;;;;;23.03;98.41;100293.06;5007497;28;20621;-85
2022/09/14 11:31:50;;;;;;;6.32;0.93;;;;;;;22.98;99.63;100298.25;5014131;28;20038;-84
2022/09/14 11:34:42;;;;;;;1.90;0.40;;;;;;;22.97;99.92;100296.63;5008827;28;20135;-83
2022/09/14 11:37:14;;;;;;;3.95;0.50;;;;;;;22.95;100.00;100296.88;5000959;28;20047;-84
2022/09/14 11:39:46;;;;;;;2.70;0.50;;;;;;;22.89;100.00;100296.97;4988459;28;20040;-83
2022/09/14 11:42:42;;;;;;;2.47;0.30;;;;;;;22.84;100.00;100295.81;5001336;28;20126;-83